Overview Statistics Trail Chart Weather Telemetry Raw packets
 

This is the latest recevied weather packets stored in our database for station/object SV9FBP-13. If no packets are shown the sender has not sent any weather packets the latest 10 day(s).

<< 32 33 34 35 36 37 38 >>
Time Temp. Humidity Pressure Rain* Wind** Luminosity Snow
1787900773 33.33° C 30% 1006 hPa 0 mm - - -
1787899870 33.33° C 30% 1005.9 hPa 0 mm - - -
1787898968 32.78° C 30% 1005.2 hPa 0 mm - - -
1787898066 32.78° C 30% 1005.5 hPa 0 mm - - -
1787897164 32.78° C 30% 1005.2 hPa 0 mm - - -
1787896262 32.78° C 30% 1005.3 hPa 0 mm - - -
1787895360 32.22° C 32% 1005.3 hPa 0 mm - - -
1787894458 31.67° C 35% 1005.2 hPa 0 mm - - -
1787893556 31.67° C 36% 1005.2 hPa 0 mm - - -
1787892654 31.11° C 35% 1005.4 hPa 0 mm - - -
1787891751 31.11° C 35% 1005.6 hPa 0 mm - - -
1787890850 31.11° C 35% 1005.4 hPa 0 mm - - -
1787889947 30.56° C 39% 1006.1 hPa 0 mm - - -
1787889045 30° C 39% 1005.8 hPa 0 mm - - -
1787888142 30.56° C 38% 1005.8 hPa 0 mm - - -
1787887241 30.56° C 38% 1006.2 hPa 0 mm - - -
1787886339 30.56° C 38% 1006.2 hPa 0 mm - - -
1787885437 30° C 40% 1006.3 hPa 0 mm - - -
1787884537 30.56° C 40% 1006.7 hPa 0 mm - - -
1787883632 30° C 40% 1006.6 hPa 0 mm - - -
1787882730 30° C 39% 1006.9 hPa 0 mm - - -
1787881828 30° C 40% 1006.9 hPa 0 mm - - -
1787880926 30° C 40% 1007.3 hPa 0 mm - - -
1787880024 30° C 40% 1007.8 hPa 0 mm - - -
1787879121 30° C 40% 1007.9 hPa 0 mm - - -

* Rain latest hour (hover to see other rain measurements)
** Current wind speed in m/s (hover to see current wind gust speed)